Bardolph, Illinois
Current Conditions -  °F | °C
As of 3:35 AM on Friday 28 Nov 2014 (Local Time) from KMQB Reporting Station
Broken Clouds Broken Clouds  
Wind Chill:   Ceiling: 12000
Heat Index: 14°   Visibility: 10mi
Dew Point:   Wind: 9mph
Humidity: 79%   Direction: 120°ESE
Pressure: 30.33"   Gusts: NA
Location:  40.5°N, 90.56°W
Report Text: KMQB 280935Z AUTO 12008KT 10SM BKN120 M10/M13 A3033 RMK AO2 T11001130
Loading
Personal Weather Stations






























Interactive Weather Map New forecast layout! Learn more

10-Day Weather Forecast

Advertisements
Track Severe Weather on mobile